sensor_id;sensor_type;location;lat;lon;timestamp;P1;durP1;ratioP1;P2;durP2;ratioP2
9156;SDS011;4613;48.392;9.998;2023-07-13T00:01:11;3.77;;;2.60;;
9156;SDS011;4613;48.392;9.998;2023-07-13T00:04:01;2.80;;;2.47;;
9156;SDS011;4613;48.392;9.998;2023-07-13T00:06:51;3.20;;;2.53;;
9156;SDS011;4613;48.392;9.998;2023-07-13T00:09:41;2.90;;;2.50;;
9156;SDS011;4613;48.392;9.998;2023-07-13T00:12:34;2.77;;;2.53;;
9156;SDS011;4613;48.392;9.998;2023-07-13T00:15:25;2.93;;;2.63;;
9156;SDS011;4613;48.392;9.998;2023-07-13T00:18:15;3.30;;;3.00;;
9156;SDS011;4613;48.392;9.998;2023-07-13T00:21:04;3.77;;;2.60;;
9156;SDS011;4613;48.392;9.998;2023-07-13T00:23:54;3.00;;;2.70;;
9156;SDS011;4613;48.392;9.998;2023-07-13T00:26:43;3.07;;;2.77;;
9156;SDS011;4613;48.392;9.998;2023-07-13T00:29:35;3.67;;;2.93;;
9156;SDS011;4613;48.392;9.998;2023-07-13T00:32:25;3.93;;;3.00;;
9156;SDS011;4613;48.392;9.998;2023-07-13T00:35:15;5.40;;;2.80;;
9156;SDS011;4613;48.392;9.998;2023-07-13T00:38:04;2.57;;;2.17;;
9156;SDS011;4613;48.392;9.998;2023-07-13T00:40:53;2.47;;;2.00;;
9156;SDS011;4613;48.392;9.998;2023-07-13T00:43:43;1.90;;;1.80;;
9156;SDS011;4613;48.392;9.998;2023-07-13T00:46:33;1.77;;;1.67;;
9156;SDS011;4613;48.392;9.998;2023-07-13T00:49:22;1.60;;;1.50;;
9156;SDS011;4613;48.392;9.998;2023-07-13T00:52:14;1.43;;;1.33;;
9156;SDS011;4613;48.392;9.998;2023-07-13T00:55:06;2.57;;;1.60;;
9156;SDS011;4613;48.392;9.998;2023-07-13T00:57:56;1.60;;;1.50;;
9156;SDS011;4613;48.392;9.998;2023-07-13T01:00:45;1.40;;;1.30;;
9156;SDS011;4613;48.392;9.998;2023-07-13T01:03:37;1.53;;;1.43;;
9156;SDS011;4613;48.392;9.998;2023-07-13T01:06:26;2.90;;;1.50;;
9156;SDS011;4613;48.392;9.998;2023-07-13T01:09:16;1.57;;;1.47;;
9156;SDS011;4613;48.392;9.998;2023-07-13T01:12:07;1.40;;;1.30;;
9156;SDS011;4613;48.392;9.998;2023-07-13T01:14:57;1.40;;;1.30;;
9156;SDS011;4613;48.392;9.998;2023-07-13T01:17:49;1.57;;;1.47;;
9156;SDS011;4613;48.392;9.998;2023-07-13T01:20:38;1.77;;;1.67;;
9156;SDS011;4613;48.392;9.998;2023-07-13T01:23:28;1.73;;;1.50;;
9156;SDS011;4613;48.392;9.998;2023-07-13T01:26:19;1.63;;;1.50;;
9156;SDS011;4613;48.392;9.998;2023-07-13T01:29:08;1.50;;;1.40;;
9156;SDS011;4613;48.392;9.998;2023-07-13T01:31:59;1.30;;;1.20;;
9156;SDS011;4613;48.392;9.998;2023-07-13T01:34:53;1.60;;;1.30;;
9156;SDS011;4613;48.392;9.998;2023-07-13T01:37:43;1.50;;;1.40;;
9156;SDS011;4613;48.392;9.998;2023-07-13T01:40:35;1.40;;;1.30;;
9156;SDS011;4613;48.392;9.998;2023-07-13T01:43:25;1.47;;;1.37;;
9156;SDS011;4613;48.392;9.998;2023-07-13T01:46:14;1.37;;;1.30;;
9156;SDS011;4613;48.392;9.998;2023-07-13T01:49:03;1.33;;;1.30;;
9156;SDS011;4613;48.392;9.998;2023-07-13T01:51:53;1.17;;;1.10;;
9156;SDS011;4613;48.392;9.998;2023-07-13T01:54:42;1.50;;;1.40;;
9156;SDS011;4613;48.392;9.998;2023-07-13T01:57:32;1.60;;;1.50;;
9156;SDS011;4613;48.392;9.998;2023-07-13T02:00:21;1.87;;;1.50;;
9156;SDS011;4613;48.392;9.998;2023-07-13T02:03:11;1.50;;;1.40;;
9156;SDS011;4613;48.392;9.998;2023-07-13T02:06:00;2.30;;;1.20;;
9156;SDS011;4613;48.392;9.998;2023-07-13T02:08:49;3.00;;;1.40;;
9156;SDS011;4613;48.392;9.998;2023-07-13T02:11:38;3.77;;;1.20;;
9156;SDS011;4613;48.392;9.998;2023-07-13T02:14:27;1.27;;;1.17;;
9156;SDS011;4613;48.392;9.998;2023-07-13T02:17:16;1.23;;;1.20;;
9156;SDS011;4613;48.392;9.998;2023-07-13T02:20:05;1.80;;;1.40;;
9156;SDS011;4613;48.392;9.998;2023-07-13T02:22:55;1.40;;;1.30;;
9156;SDS011;4613;48.392;9.998;2023-07-13T02:25:45;2.40;;;1.50;;
9156;SDS011;4613;48.392;9.998;2023-07-13T02:28:35;1.83;;;1.20;;
9156;SDS011;4613;48.392;9.998;2023-07-13T02:31:24;1.40;;;1.30;;
9156;SDS011;4613;48.392;9.998;2023-07-13T02:34:16;1.40;;;1.30;;
9156;SDS011;4613;48.392;9.998;2023-07-13T02:37:06;1.30;;;1.20;;
9156;SDS011;4613;48.392;9.998;2023-07-13T02:39:57;1.17;;;1.10;;
9156;SDS011;4613;48.392;9.998;2023-07-13T02:42:46;1.40;;;1.30;;
9156;SDS011;4613;48.392;9.998;2023-07-13T02:45:35;1.10;;;1.10;;
9156;SDS011;4613;48.392;9.998;2023-07-13T02:48:25;1.47;;;1.37;;
9156;SDS011;4613;48.392;9.998;2023-07-13T02:51:14;1.20;;;1.10;;
9156;SDS011;4613;48.392;9.998;2023-07-13T02:54:03;1.30;;;1.20;;
9156;SDS011;4613;48.392;9.998;2023-07-13T02:56:54;1.30;;;1.20;;
9156;SDS011;4613;48.392;9.998;2023-07-13T02:59:43;1.83;;;1.20;;
9156;SDS011;4613;48.392;9.998;2023-07-13T03:02:33;1.00;;;1.00;;
9156;SDS011;4613;48.392;9.998;2023-07-13T03:05:23;1.40;;;1.30;;
9156;SDS011;4613;48.392;9.998;2023-07-13T03:08:12;1.50;;;1.40;;
9156;SDS011;4613;48.392;9.998;2023-07-13T03:11:06;1.50;;;1.40;;
9156;SDS011;4613;48.392;9.998;2023-07-13T03:14:00;1.00;;;0.90;;
9156;SDS011;4613;48.392;9.998;2023-07-13T03:16:53;0.90;;;0.90;;
9156;SDS011;4613;48.392;9.998;2023-07-13T03:19:46;1.53;;;1.13;;
9156;SDS011;4613;48.392;9.998;2023-07-13T03:22:38;1.23;;;1.13;;
9156;SDS011;4613;48.392;9.998;2023-07-13T03:25:27;1.30;;;1.20;;
9156;SDS011;4613;48.392;9.998;2023-07-13T03:28:17;1.13;;;1.10;;
9156;SDS011;4613;48.392;9.998;2023-07-13T03:31:11;3.47;;;1.40;;
9156;SDS011;4613;48.392;9.998;2023-07-13T03:34:05;0.93;;;0.93;;
9156;SDS011;4613;48.392;9.998;2023-07-13T03:36:55;1.80;;;1.20;;
9156;SDS011;4613;48.392;9.998;2023-07-13T03:39:45;1.33;;;1.17;;
9156;SDS011;4613;48.392;9.998;2023-07-13T03:42:34;1.10;;;1.03;;
9156;SDS011;4613;48.392;9.998;2023-07-13T03:45:24;1.87;;;1.00;;
9156;SDS011;4613;48.392;9.998;2023-07-13T03:48:13;1.20;;;1.10;;
9156;SDS011;4613;48.392;9.998;2023-07-13T03:51:03;1.60;;;1.50;;
9156;SDS011;4613;48.392;9.998;2023-07-13T03:53:52;1.60;;;1.50;;
9156;SDS011;4613;48.392;9.998;2023-07-13T03:56:42;2.23;;;1.33;;
9156;SDS011;4613;48.392;9.998;2023-07-13T03:59:32;1.30;;;1.20;;
9156;SDS011;4613;48.392;9.998;2023-07-13T04:02:22;1.33;;;1.20;;
9156;SDS011;4613;48.392;9.998;2023-07-13T04:05:11;1.20;;;1.10;;
9156;SDS011;4613;48.392;9.998;2023-07-13T04:08:01;1.27;;;1.17;;
9156;SDS011;4613;48.392;9.998;2023-07-13T04:10:50;1.20;;;1.10;;
9156;SDS011;4613;48.392;9.998;2023-07-13T04:13:39;1.40;;;1.30;;
9156;SDS011;4613;48.392;9.998;2023-07-13T04:16:28;1.30;;;1.20;;
9156;SDS011;4613;48.392;9.998;2023-07-13T04:19:17;1.20;;;1.20;;
9156;SDS011;4613;48.392;9.998;2023-07-13T04:22:07;1.47;;;1.37;;
9156;SDS011;4613;48.392;9.998;2023-07-13T04:24:56;1.33;;;1.17;;
9156;SDS011;4613;48.392;9.998;2023-07-13T04:27:45;1.10;;;1.10;;
9156;SDS011;4613;48.392;9.998;2023-07-13T04:30:34;1.10;;;1.10;;
9156;SDS011;4613;48.392;9.998;2023-07-13T04:33:24;1.30;;;1.20;;
9156;SDS011;4613;48.392;9.998;2023-07-13T04:36:14;1.50;;;1.40;;
9156;SDS011;4613;48.392;9.998;2023-07-13T04:39:04;1.43;;;1.30;;
9156;SDS011;4613;48.392;9.998;2023-07-13T04:41:55;1.67;;;1.30;;
9156;SDS011;4613;48.392;9.998;2023-07-13T04:44:49;1.37;;;1.30;;
9156;SDS011;4613;48.392;9.998;2023-07-13T04:47:38;1.23;;;1.13;;
9156;SDS011;4613;48.392;9.998;2023-07-13T04:50:28;1.67;;;1.40;;
9156;SDS011;4613;48.392;9.998;2023-07-13T04:53:17;1.63;;;1.30;;
9156;SDS011;4613;48.392;9.998;2023-07-13T04:56:07;1.20;;;1.20;;
9156;SDS011;4613;48.392;9.998;2023-07-13T04:58:56;1.20;;;1.20;;
9156;SDS011;4613;48.392;9.998;2023-07-13T05:01:45;1.30;;;1.20;;
9156;SDS011;4613;48.392;9.998;2023-07-13T05:04:34;1.37;;;1.20;;
9156;SDS011;4613;48.392;9.998;2023-07-13T05:07:24;1.17;;;1.17;;
9156;SDS011;4613;48.392;9.998;2023-07-13T05:10:13;1.33;;;1.23;;
9156;SDS011;4613;48.392;9.998;2023-07-13T05:13:03;1.57;;;1.43;;
9156;SDS011;4613;48.392;9.998;2023-07-13T05:15:58;1.37;;;1.27;;
9156;SDS011;4613;48.392;9.998;2023-07-13T05:18:52;2.23;;;1.40;;
9156;SDS011;4613;48.392;9.998;2023-07-13T05:21:42;2.50;;;1.40;;
9156;SDS011;4613;48.392;9.998;2023-07-13T05:24:31;1.80;;;1.30;;
9156;SDS011;4613;48.392;9.998;2023-07-13T05:27:20;2.17;;;1.30;;
9156;SDS011;4613;48.392;9.998;2023-07-13T05:30:10;1.40;;;1.30;;
9156;SDS011;4613;48.392;9.998;2023-07-13T05:33:00;1.70;;;1.50;;
9156;SDS011;4613;48.392;9.998;2023-07-13T05:35:49;2.47;;;1.60;;
9156;SDS011;4613;48.392;9.998;2023-07-13T05:38:39;2.57;;;1.83;;
9156;SDS011;4613;48.392;9.998;2023-07-13T05:41:28;1.93;;;1.67;;
9156;SDS011;4613;48.392;9.998;2023-07-13T05:44:18;2.50;;;1.57;;
9156;SDS011;4613;48.392;9.998;2023-07-13T05:47:08;3.13;;;1.50;;
9156;SDS011;4613;48.392;9.998;2023-07-13T05:49:57;3.50;;;1.47;;
9156;SDS011;4613;48.392;9.998;2023-07-13T05:52:46;2.40;;;1.50;;
9156;SDS011;4613;48.392;9.998;2023-07-13T05:55:35;6.83;;;1.87;;
9156;SDS011;4613;48.392;9.998;2023-07-13T05:58:29;1.60;;;1.33;;
9156;SDS011;4613;48.392;9.998;2023-07-13T06:01:19;4.10;;;1.40;;
9156;SDS011;4613;48.392;9.998;2023-07-13T06:04:09;1.77;;;1.30;;
9156;SDS011;4613;48.392;9.998;2023-07-13T06:06:58;1.53;;;1.37;;
9156;SDS011;4613;48.392;9.998;2023-07-13T06:09:47;1.30;;;1.20;;
9156;SDS011;4613;48.392;9.998;2023-07-13T06:12:36;1.83;;;1.00;;
9156;SDS011;4613;48.392;9.998;2023-07-13T06:15:25;2.50;;;1.40;;
9156;SDS011;4613;48.392;9.998;2023-07-13T06:18:15;1.17;;;1.10;;
9156;SDS011;4613;48.392;9.998;2023-07-13T06:21:08;1.10;;;1.10;;
9156;SDS011;4613;48.392;9.998;2023-07-13T06:24:02;1.13;;;1.10;;
9156;SDS011;4613;48.392;9.998;2023-07-13T06:26:52;1.20;;;1.00;;
9156;SDS011;4613;48.392;9.998;2023-07-13T06:29:42;1.30;;;1.20;;
9156;SDS011;4613;48.392;9.998;2023-07-13T06:32:33;1.20;;;1.20;;
9156;SDS011;4613;48.392;9.998;2023-07-13T06:35:23;2.20;;;1.20;;
9156;SDS011;4613;48.392;9.998;2023-07-13T06:38:12;1.03;;;1.03;;
9156;SDS011;4613;48.392;9.998;2023-07-13T06:41:01;1.83;;;1.17;;
9156;SDS011;4613;48.392;9.998;2023-07-13T06:43:50;0.90;;;0.90;;
9156;SDS011;4613;48.392;9.998;2023-07-13T06:46:40;2.00;;;1.00;;
9156;SDS011;4613;48.392;9.998;2023-07-13T06:49:29;1.30;;;1.17;;
9156;SDS011;4613;48.392;9.998;2023-07-13T06:52:19;1.30;;;1.20;;
9156;SDS011;4613;48.392;9.998;2023-07-13T06:55:08;1.90;;;1.37;;
9156;SDS011;4613;48.392;9.998;2023-07-13T06:57:58;2.50;;;1.40;;
9156;SDS011;4613;48.392;9.998;2023-07-13T07:00:49;2.77;;;0.90;;
9156;SDS011;4613;48.392;9.998;2023-07-13T07:03:40;1.10;;;1.10;;
9156;SDS011;4613;48.392;9.998;2023-07-13T07:06:30;1.10;;;1.10;;
9156;SDS011;4613;48.392;9.998;2023-07-13T07:09:19;0.90;;;0.90;;
9156;SDS011;4613;48.392;9.998;2023-07-13T07:12:08;1.20;;;1.20;;
9156;SDS011;4613;48.392;9.998;2023-07-13T07:14:57;1.30;;;1.20;;
9156;SDS011;4613;48.392;9.998;2023-07-13T07:17:46;0.90;;;0.90;;
9156;SDS011;4613;48.392;9.998;2023-07-13T07:20:36;1.13;;;1.10;;
9156;SDS011;4613;48.392;9.998;2023-07-13T07:23:25;1.63;;;1.00;;
9156;SDS011;4613;48.392;9.998;2023-07-13T07:26:15;1.73;;;1.20;;
9156;SDS011;4613;48.392;9.998;2023-07-13T07:29:04;2.30;;;1.10;;
9156;SDS011;4613;48.392;9.998;2023-07-13T07:31:53;2.10;;;1.20;;
9156;SDS011;4613;48.392;9.998;2023-07-13T07:34:42;2.97;;;1.13;;
9156;SDS011;4613;48.392;9.998;2023-07-13T07:37:31;1.20;;;1.10;;
9156;SDS011;4613;48.392;9.998;2023-07-13T07:40:21;0.90;;;0.90;;
9156;SDS011;4613;48.392;9.998;2023-07-13T07:43:11;1.27;;;1.13;;
9156;SDS011;4613;48.392;9.998;2023-07-13T07:46:01;1.43;;;1.10;;
9156;SDS011;4613;48.392;9.998;2023-07-13T07:48:51;1.20;;;1.00;;
9156;SDS011;4613;48.392;9.998;2023-07-13T07:51:40;2.53;;;1.40;;
9156;SDS011;4613;48.392;9.998;2023-07-13T07:54:30;1.27;;;1.17;;
9156;SDS011;4613;48.392;9.998;2023-07-13T07:57:19;1.13;;;1.03;;
9156;SDS011;4613;48.392;9.998;2023-07-13T08:00:08;1.43;;;1.20;;
9156;SDS011;4613;48.392;9.998;2023-07-13T08:03:02;2.20;;;1.20;;
9156;SDS011;4613;48.392;9.998;2023-07-13T08:05:55;1.00;;;1.00;;
9156;SDS011;4613;48.392;9.998;2023-07-13T08:08:44;1.13;;;1.07;;
9156;SDS011;4613;48.392;9.998;2023-07-13T08:11:33;1.00;;;1.00;;
9156;SDS011;4613;48.392;9.998;2023-07-13T08:14:22;1.00;;;1.00;;
9156;SDS011;4613;48.392;9.998;2023-07-13T08:17:11;1.63;;;1.30;;
9156;SDS011;4613;48.392;9.998;2023-07-13T08:20:00;1.40;;;1.07;;
9156;SDS011;4613;48.392;9.998;2023-07-13T08:22:50;1.30;;;1.20;;
9156;SDS011;4613;48.392;9.998;2023-07-13T08:25:39;1.27;;;1.10;;
9156;SDS011;4613;48.392;9.998;2023-07-13T08:28:28;1.23;;;1.13;;
9156;SDS011;4613;48.392;9.998;2023-07-13T08:31:18;2.80;;;1.30;;
9156;SDS011;4613;48.392;9.998;2023-07-13T08:34:07;1.00;;;1.00;;
9156;SDS011;4613;48.392;9.998;2023-07-13T08:36:57;1.53;;;1.30;;
9156;SDS011;4613;48.392;9.998;2023-07-13T08:39:46;1.30;;;1.20;;
9156;SDS011;4613;48.392;9.998;2023-07-13T08:42:39;1.00;;;1.00;;
9156;SDS011;4613;48.392;9.998;2023-07-13T08:45:46;1.17;;;1.07;;
9156;SDS011;4613;48.392;9.998;2023-07-13T08:48:44;1.23;;;1.00;;
9156;SDS011;4613;48.392;9.998;2023-07-13T08:51:51;2.10;;;1.37;;
9156;SDS011;4613;48.392;9.998;2023-07-13T08:54:47;1.30;;;1.20;;
9156;SDS011;4613;48.392;9.998;2023-07-13T08:57:40;1.23;;;1.17;;
9156;SDS011;4613;48.392;9.998;2023-07-13T09:00:34;1.17;;;0.90;;
9156;SDS011;4613;48.392;9.998;2023-07-13T09:03:33;1.53;;;1.40;;
9156;SDS011;4613;48.392;9.998;2023-07-13T09:07:16;2.40;;;1.30;;
9156;SDS011;4613;48.392;9.998;2023-07-13T09:10:12;2.47;;;1.13;;
9156;SDS011;4613;48.392;9.998;2023-07-13T09:16:13;1.63;;;1.20;;
9156;SDS011;4613;48.392;9.998;2023-07-13T09:19:04;1.40;;;1.30;;
9156;SDS011;4613;48.392;9.998;2023-07-13T09:21:55;1.20;;;1.10;;
9156;SDS011;4613;48.392;9.998;2023-07-13T09:24:50;5.43;;;1.20;;
9156;SDS011;4613;48.392;9.998;2023-07-13T09:27:44;1.10;;;1.10;;
9156;SDS011;4613;48.392;9.998;2023-07-13T09:30:56;1.10;;;1.10;;
9156;SDS011;4613;48.392;9.998;2023-07-13T09:33:55;0.97;;;0.93;;
9156;SDS011;4613;48.392;9.998;2023-07-13T09:36:45;1.30;;;1.20;;
9156;SDS011;4613;48.392;9.998;2023-07-13T09:39:35;1.00;;;1.00;;
9156;SDS011;4613;48.392;9.998;2023-07-13T09:42:28;1.20;;;1.20;;
9156;SDS011;4613;48.392;9.998;2023-07-13T09:45:26;1.37;;;1.10;;
9156;SDS011;4613;48.392;9.998;2023-07-13T09:48:17;1.30;;;1.20;;
9156;SDS011;4613;48.392;9.998;2023-07-13T09:51:13;0.97;;;0.97;;
9156;SDS011;4613;48.392;9.998;2023-07-13T09:54:03;1.83;;;1.20;;
9156;SDS011;4613;48.392;9.998;2023-07-13T09:56:57;1.00;;;1.00;;
9156;SDS011;4613;48.392;9.998;2023-07-13T09:59:48;1.00;;;1.00;;
9156;SDS011;4613;48.392;9.998;2023-07-13T10:02:40;2.47;;;1.70;;
9156;SDS011;4613;48.392;9.998;2023-07-13T10:05:40;1.40;;;1.30;;
9156;SDS011;4613;48.392;9.998;2023-07-13T10:08:31;6.37;;;1.20;;
9156;SDS011;4613;48.392;9.998;2023-07-13T10:14:22;1.43;;;1.10;;
9156;SDS011;4613;48.392;9.998;2023-07-13T10:17:14;1.10;;;1.10;;
9156;SDS011;4613;48.392;9.998;2023-07-13T10:20:07;0.90;;;0.90;;
9156;SDS011;4613;48.392;9.998;2023-07-13T10:23:10;0.93;;;0.93;;
9156;SDS011;4613;48.392;9.998;2023-07-13T10:26:17;1.20;;;1.10;;
9156;SDS011;4613;48.392;9.998;2023-07-13T10:29:13;0.87;;;0.87;;
9156;SDS011;4613;48.392;9.998;2023-07-13T10:32:10;1.40;;;1.10;;
9156;SDS011;4613;48.392;9.998;2023-07-13T10:35:01;1.00;;;1.00;;
9156;SDS011;4613;48.392;9.998;2023-07-13T10:37:52;1.30;;;1.20;;
9156;SDS011;4613;48.392;9.998;2023-07-13T10:40:58;1.17;;;1.07;;
9156;SDS011;4613;48.392;9.998;2023-07-13T10:43:55;1.00;;;1.00;;
9156;SDS011;4613;48.392;9.998;2023-07-13T10:46:46;1.20;;;1.10;;
9156;SDS011;4613;48.392;9.998;2023-07-13T10:49:37;2.37;;;1.03;;
9156;SDS011;4613;48.392;9.998;2023-07-13T10:55:32;1.60;;;0.90;;
9156;SDS011;4613;48.392;9.998;2023-07-13T10:59:25;0.90;;;0.90;;
9156;SDS011;4613;48.392;9.998;2023-07-13T11:02:09;1.10;;;1.10;;
9156;SDS011;4613;48.392;9.998;2023-07-13T11:05:18;1.10;;;1.10;;
9156;SDS011;4613;48.392;9.998;2023-07-13T11:08:31;1.17;;;1.17;;
9156;SDS011;4613;48.392;9.998;2023-07-13T11:26:01;1.03;;;1.03;;
9156;SDS011;4613;48.392;9.998;2023-07-13T11:28:51;1.30;;;1.20;;
9156;SDS011;4613;48.392;9.998;2023-07-13T11:31:41;1.43;;;0.90;;
9156;SDS011;4613;48.392;9.998;2023-07-13T11:34:36;1.33;;;1.10;;
9156;SDS011;4613;48.392;9.998;2023-07-13T11:37:27;1.00;;;1.00;;
9156;SDS011;4613;48.392;9.998;2023-07-13T11:40:18;0.90;;;0.90;;
9156;SDS011;4613;48.392;9.998;2023-07-13T11:43:12;1.53;;;0.97;;
9156;SDS011;4613;48.392;9.998;2023-07-13T11:49:23;1.00;;;1.00;;
9156;SDS011;4613;48.392;9.998;2023-07-13T11:52:17;0.97;;;0.97;;
9156;SDS011;4613;48.392;9.998;2023-07-13T11:55:13;1.60;;;1.00;;
9156;SDS011;4613;48.392;9.998;2023-07-13T11:58:07;0.90;;;0.90;;
9156;SDS011;4613;48.392;9.998;2023-07-13T12:01:00;1.00;;;1.00;;
9156;SDS011;4613;48.392;9.998;2023-07-13T12:03:53;1.53;;;1.17;;
9156;SDS011;4613;48.392;9.998;2023-07-13T12:06:44;1.50;;;1.00;;
9156;SDS011;4613;48.392;9.998;2023-07-13T12:09:33;1.47;;;0.90;;
9156;SDS011;4613;48.392;9.998;2023-07-13T12:12:28;2.23;;;1.30;;
9156;SDS011;4613;48.392;9.998;2023-07-13T12:15:18;2.43;;;1.23;;
9156;SDS011;4613;48.392;9.998;2023-07-13T12:18:29;1.30;;;1.20;;
9156;SDS011;4613;48.392;9.998;2023-07-13T12:21:19;2.30;;;1.20;;
9156;SDS011;4613;48.392;9.998;2023-07-13T12:24:17;1.00;;;1.00;;
9156;SDS011;4613;48.392;9.998;2023-07-13T12:33:19;1.10;;;1.00;;
9156;SDS011;4613;48.392;9.998;2023-07-13T12:36:08;1.00;;;1.00;;
9156;SDS011;4613;48.392;9.998;2023-07-13T12:39:04;1.00;;;1.00;;
9156;SDS011;4613;48.392;9.998;2023-07-13T12:42:22;0.97;;;0.97;;
9156;SDS011;4613;48.392;9.998;2023-07-13T12:45:20;1.50;;;1.00;;
9156;SDS011;4613;48.392;9.998;2023-07-13T12:48:20;2.23;;;1.00;;
9156;SDS011;4613;48.392;9.998;2023-07-13T12:51:10;0.80;;;0.80;;
9156;SDS011;4613;48.392;9.998;2023-07-13T12:54:06;0.97;;;0.97;;
9156;SDS011;4613;48.392;9.998;2023-07-13T12:57:03;1.00;;;1.00;;
9156;SDS011;4613;48.392;9.998;2023-07-13T12:59:55;1.53;;;1.27;;
9156;SDS011;4613;48.392;9.998;2023-07-13T13:02:45;1.40;;;1.00;;
9156;SDS011;4613;48.392;9.998;2023-07-13T13:05:34;1.50;;;1.10;;
9156;SDS011;4613;48.392;9.998;2023-07-13T13:08:23;1.80;;;1.10;;
9156;SDS011;4613;48.392;9.998;2023-07-13T13:11:13;1.30;;;1.20;;
9156;SDS011;4613;48.392;9.998;2023-07-13T13:14:06;1.07;;;1.07;;
9156;SDS011;4613;48.392;9.998;2023-07-13T13:16:58;0.93;;;0.93;;
9156;SDS011;4613;48.392;9.998;2023-07-13T13:19:49;1.10;;;1.10;;
9156;SDS011;4613;48.392;9.998;2023-07-13T13:22:38;2.93;;;1.00;;
9156;SDS011;4613;48.392;9.998;2023-07-13T13:25:27;1.13;;;1.00;;
9156;SDS011;4613;48.392;9.998;2023-07-13T13:28:18;0.93;;;0.90;;
9156;SDS011;4613;48.392;9.998;2023-07-13T13:31:09;1.20;;;1.10;;
9156;SDS011;4613;48.392;9.998;2023-07-13T13:34:01;0.90;;;0.90;;
9156;SDS011;4613;48.392;9.998;2023-07-13T13:36:53;0.97;;;0.97;;
9156;SDS011;4613;48.392;9.998;2023-07-13T13:39:43;2.30;;;1.20;;
9156;SDS011;4613;48.392;9.998;2023-07-13T13:42:33;1.73;;;1.10;;
9156;SDS011;4613;48.392;9.998;2023-07-13T13:45:22;1.07;;;1.07;;
9156;SDS011;4613;48.392;9.998;2023-07-13T13:48:17;2.30;;;1.43;;
9156;SDS011;4613;48.392;9.998;2023-07-13T13:51:18;1.00;;;1.00;;
9156;SDS011;4613;48.392;9.998;2023-07-13T13:54:13;1.17;;;1.07;;
9156;SDS011;4613;48.392;9.998;2023-07-13T13:57:04;1.10;;;1.10;;
9156;SDS011;4613;48.392;9.998;2023-07-13T13:59:54;1.00;;;1.00;;
9156;SDS011;4613;48.392;9.998;2023-07-13T14:02:44;1.27;;;1.17;;
9156;SDS011;4613;48.392;9.998;2023-07-13T14:05:40;1.00;;;1.00;;
9156;SDS011;4613;48.392;9.998;2023-07-13T14:08:29;1.10;;;1.10;;
9156;SDS011;4613;48.392;9.998;2023-07-13T14:11:20;0.90;;;0.90;;
9156;SDS011;4613;48.392;9.998;2023-07-13T14:14:17;1.00;;;1.00;;
9156;SDS011;4613;48.392;9.998;2023-07-13T14:17:15;1.43;;;1.00;;
9156;SDS011;4613;48.392;9.998;2023-07-13T14:20:11;1.07;;;1.00;;
9156;SDS011;4613;48.392;9.998;2023-07-13T14:23:01;1.10;;;1.00;;
9156;SDS011;4613;48.392;9.998;2023-07-13T14:25:50;0.90;;;0.90;;
9156;SDS011;4613;48.392;9.998;2023-07-13T14:28:41;1.10;;;1.00;;
9156;SDS011;4613;48.392;9.998;2023-07-13T14:31:32;1.23;;;1.13;;
9156;SDS011;4613;48.392;9.998;2023-07-13T14:34:22;1.60;;;1.10;;
9156;SDS011;4613;48.392;9.998;2023-07-13T14:37:12;1.17;;;1.07;;
9156;SDS011;4613;48.392;9.998;2023-07-13T14:40:11;1.10;;;1.10;;
9156;SDS011;4613;48.392;9.998;2023-07-13T14:43:01;3.40;;;1.00;;
9156;SDS011;4613;48.392;9.998;2023-07-13T14:45:51;1.27;;;1.17;;
9156;SDS011;4613;48.392;9.998;2023-07-13T14:48:40;1.00;;;1.00;;
9156;SDS011;4613;48.392;9.998;2023-07-13T14:51:31;1.27;;;1.10;;
9156;SDS011;4613;48.392;9.998;2023-07-13T14:54:23;1.13;;;1.03;;
9156;SDS011;4613;48.392;9.998;2023-07-13T14:57:13;1.33;;;0.90;;
9156;SDS011;4613;48.392;9.998;2023-07-13T15:00:05;1.20;;;1.10;;
9156;SDS011;4613;48.392;9.998;2023-07-13T15:03:01;1.37;;;0.90;;
9156;SDS011;4613;48.392;9.998;2023-07-13T15:05:51;1.10;;;1.10;;
9156;SDS011;4613;48.392;9.998;2023-07-13T15:08:41;1.30;;;1.20;;
9156;SDS011;4613;48.392;9.998;2023-07-13T15:11:31;1.33;;;1.20;;
9156;SDS011;4613;48.392;9.998;2023-07-13T15:14:21;2.50;;;1.00;;
9156;SDS011;4613;48.392;9.998;2023-07-13T15:20:32;2.37;;;1.00;;
9156;SDS011;4613;48.392;9.998;2023-07-13T15:23:23;1.20;;;1.10;;
9156;SDS011;4613;48.392;9.998;2023-07-13T15:26:15;1.00;;;1.00;;
9156;SDS011;4613;48.392;9.998;2023-07-13T15:29:06;1.00;;;1.00;;
9156;SDS011;4613;48.392;9.998;2023-07-13T15:31:55;1.03;;;1.03;;
9156;SDS011;4613;48.392;9.998;2023-07-13T15:34:44;0.93;;;0.93;;
9156;SDS011;4613;48.392;9.998;2023-07-13T15:37:34;1.20;;;1.10;;
9156;SDS011;4613;48.392;9.998;2023-07-13T15:40:23;1.37;;;1.10;;
9156;SDS011;4613;48.392;9.998;2023-07-13T15:43:13;1.30;;;1.20;;
9156;SDS011;4613;48.392;9.998;2023-07-13T15:46:04;1.13;;;1.03;;
9156;SDS011;4613;48.392;9.998;2023-07-13T15:48:54;1.37;;;1.23;;
9156;SDS011;4613;48.392;9.998;2023-07-13T15:51:45;2.53;;;1.10;;
9156;SDS011;4613;48.392;9.998;2023-07-13T15:54:35;1.53;;;1.07;;
9156;SDS011;4613;48.392;9.998;2023-07-13T15:57:26;1.20;;;1.20;;
9156;SDS011;4613;48.392;9.998;2023-07-13T16:00:21;1.37;;;1.00;;
9156;SDS011;4613;48.392;9.998;2023-07-13T16:03:12;0.90;;;0.90;;
9156;SDS011;4613;48.392;9.998;2023-07-13T16:06:03;5.40;;;3.00;;
9156;SDS011;4613;48.392;9.998;2023-07-13T16:09:00;3.23;;;2.20;;
9156;SDS011;4613;48.392;9.998;2023-07-13T16:11:49;2.07;;;1.53;;
9156;SDS011;4613;48.392;9.998;2023-07-13T16:14:40;1.73;;;1.20;;
9156;SDS011;4613;48.392;9.998;2023-07-13T16:17:29;1.00;;;1.00;;
9156;SDS011;4613;48.392;9.998;2023-07-13T16:20:19;1.07;;;1.07;;
9156;SDS011;4613;48.392;9.998;2023-07-13T16:23:12;0.80;;;0.80;;
9156;SDS011;4613;48.392;9.998;2023-07-13T16:26:03;1.13;;;1.13;;
9156;SDS011;4613;48.392;9.998;2023-07-13T16:29:01;0.90;;;0.90;;
9156;SDS011;4613;48.392;9.998;2023-07-13T16:31:57;2.20;;;1.03;;
9156;SDS011;4613;48.392;9.998;2023-07-13T16:34:48;0.90;;;0.90;;
9156;SDS011;4613;48.392;9.998;2023-07-13T16:37:37;1.23;;;1.13;;
9156;SDS011;4613;48.392;9.998;2023-07-13T16:40:28;1.00;;;1.00;;
9156;SDS011;4613;48.392;9.998;2023-07-13T16:43:19;1.10;;;1.10;;
9156;SDS011;4613;48.392;9.998;2023-07-13T16:46:10;1.83;;;1.10;;
9156;SDS011;4613;48.392;9.998;2023-07-13T16:49:04;2.00;;;1.20;;
9156;SDS011;4613;48.392;9.998;2023-07-13T16:52:06;1.83;;;1.40;;
9156;SDS011;4613;48.392;9.998;2023-07-13T16:54:58;1.00;;;1.00;;
9156;SDS011;4613;48.392;9.998;2023-07-13T16:57:47;1.17;;;1.00;;
9156;SDS011;4613;48.392;9.998;2023-07-13T17:00:37;1.00;;;1.00;;
9156;SDS011;4613;48.392;9.998;2023-07-13T17:03:26;2.30;;;1.10;;
9156;SDS011;4613;48.392;9.998;2023-07-13T17:06:22;1.03;;;1.00;;
9156;SDS011;4613;48.392;9.998;2023-07-13T17:09:12;1.17;;;1.10;;
9156;SDS011;4613;48.392;9.998;2023-07-13T17:12:02;1.00;;;1.00;;
9156;SDS011;4613;48.392;9.998;2023-07-13T17:14:51;1.80;;;1.13;;
9156;SDS011;4613;48.392;9.998;2023-07-13T17:17:41;1.07;;;1.07;;
9156;SDS011;4613;48.392;9.998;2023-07-13T17:20:34;0.97;;;0.97;;
9156;SDS011;4613;48.392;9.998;2023-07-13T17:23:31;1.03;;;1.03;;
9156;SDS011;4613;48.392;9.998;2023-07-13T17:26:23;1.50;;;1.40;;
9156;SDS011;4613;48.392;9.998;2023-07-13T17:29:12;1.23;;;1.13;;
9156;SDS011;4613;48.392;9.998;2023-07-13T17:32:01;1.10;;;1.10;;
9156;SDS011;4613;48.392;9.998;2023-07-13T17:34:52;1.10;;;1.00;;
9156;SDS011;4613;48.392;9.998;2023-07-13T17:37:41;1.07;;;1.00;;
9156;SDS011;4613;48.392;9.998;2023-07-13T17:40:30;1.47;;;1.37;;
9156;SDS011;4613;48.392;9.998;2023-07-13T17:43:21;2.13;;;1.53;;
9156;SDS011;4613;48.392;9.998;2023-07-13T17:52:09;1.10;;;1.10;;
9156;SDS011;4613;48.392;9.998;2023-07-13T17:55:01;1.10;;;1.10;;
9156;SDS011;4613;48.392;9.998;2023-07-13T17:57:57;1.20;;;1.10;;
9156;SDS011;4613;48.392;9.998;2023-07-13T18:00:46;1.37;;;1.10;;
9156;SDS011;4613;48.392;9.998;2023-07-13T18:03:39;1.20;;;1.13;;
9156;SDS011;4613;48.392;9.998;2023-07-13T18:06:34;1.97;;;1.30;;
9156;SDS011;4613;48.392;9.998;2023-07-13T18:09:26;1.20;;;1.10;;
9156;SDS011;4613;48.392;9.998;2023-07-13T18:12:16;1.40;;;1.30;;
9156;SDS011;4613;48.392;9.998;2023-07-13T18:15:05;2.03;;;1.30;;
9156;SDS011;4613;48.392;9.998;2023-07-13T18:17:55;1.80;;;1.37;;
9156;SDS011;4613;48.392;9.998;2023-07-13T18:20:48;1.40;;;1.30;;
9156;SDS011;4613;48.392;9.998;2023-07-13T18:23:37;1.70;;;1.60;;
9156;SDS011;4613;48.392;9.998;2023-07-13T18:26:27;2.10;;;1.90;;
9156;SDS011;4613;48.392;9.998;2023-07-13T18:29:16;1.60;;;1.30;;